Milton, Louisiana
Current Conditions -  °F | °C
As of 2:15 AM on Monday 26 Jan 2015 (Local Time) from KIYA Reporting Station
Clear Clear  
Wind Chill: 41°   Ceiling: Unl
Heat Index: 46°   Visibility: 10mi
Dew Point: 33°   Wind: 9mph
Humidity: 60%   Direction: 310°NW
Pressure: 30.08"   Gusts: NA
Location:  30.1°N, 92.08°W
Report Text: KIYA 260815Z AUTO 31008KT 10SM CLR 08/01 A3008 RMK AO2 T00780005 TSNO
Loading
Personal Weather Stations






























Interactive Weather Map New forecast layout! Learn more

10-Day Weather Forecast

Advertisements
Track Severe Weather on mobile